Kyme — XUPY9 — position and weather

sailwx.info

Track history (hours):
 
Tides and Currents Weather Stations Pressure Air Temp Water Temp Dewpoint Dewpoint Depression Visibility Wind Speed Wind Dir Waves Ship Positions

Kyme

Last reported at 2014-Jul-25 21:32 UTC. Time now 2014-Jul-30 05:02 UTC.
Position N 40°58' E 028°60'.

Length 114 m; draft 3.6 m.

Type: Cargo ship. MMSI: 514283000.

Date/timePositionNaut miles runAvg speedWind from/ knotsBaromVisibWave heightAir tempDewpointWater temp
2014-Jul-25 21:32N 40°58' E 028°60'7 7.4
2014-Jul-25 20:32N 40°51' E 029°05'6 5.7
2014-Jul-25 19:33N 40°53' E 029°12'0 0.1
2014-Jul-25 18:30N 40°53' E 029°12'0 0.0
2014-Jul-25 17:30N 40°53' E 029°12'0 0.0
2014-Jul-25 16:24N 40°53' E 029°12'0 0.0
2014-Jul-25 15:30N 40°52' E 029°12'0 0.0
2014-Jul-25 14:30N 40°53' E 029°12'0 0.0
2014-Jul-25 13:30N 40°53' E 029°12'0 0.0
2014-Jul-25 12:30N 40°53' E 029°12'0 0.0
2014-Jul-25 11:30N 40°53' E 029°12'0 0.0
2014-Jul-25 10:30N 40°53' E 029°12'0 0.0
2014-Jul-25 09:30N 40°53' E 029°12'0 0.0
2014-Jul-25 08:30N 40°53' E 029°12'0 0.0
2014-Jul-25 07:24N 40°53' E 029°12'0 0.0
2014-Jul-25 06:24N 40°53' E 029°12'0 0.0
2014-Jul-25 05:30N 40°53' E 029°12'0 0.0
2014-Jul-25 04:30N 40°53' E 029°12'0 0.0
2014-Jul-25 03:24N 40°53' E 029°12'0 0.0
2014-Jul-25 02:30N 40°53' E 029°12'0 0.0
2014-Jul-25 01:29N 40°53' E 029°12'0 0.0
2014-Jul-25 00:29N 40°53' E 029°12'0 0.1
2014-Jul-24 23:11N 40°53' E 029°12'0 0.1
2014-Jul-24 22:23N 40°53' E 029°12'0 0.1
2014-Jul-24 21:23N 40°53' E 029°12'2 2.5
2014-Jul-24 20:33N 40°51' E 029°10'7 7.2
2014-Jul-24 19:33N 40°46' E 029°04'7 7.4
2014-Jul-24 18:33N 40°41' E 028°56'8 7.3
2014-Jul-24 17:28N 40°35' E 028°49'15 5.2
2014-Jul-24 14:33N 40°26' E 029°04'2 0.4
2014-Jul-24 09:24N 40°25' E 029°07'0 0.0
2014-Jul-24 07:30N 40°25' E 029°07'1 0.0
2014-Jul-23 05:14N 40°26' E 029°06'3 4.1
2014-Jul-23 04:32N 40°26' E 029°02'12 5.7
2014-Jul-23 02:23N 40°29' E 028°47'4 5.2
2014-Jul-23 01:33N 40°33' E 028°45'6 6.0
2014-Jul-23 00:33N 40°39' E 028°48'6 5.9
2014-Jul-22 23:31N 40°44' E 028°51'6 6.3
2014-Jul-22 22:33N 40°50' E 028°54'7 6.8
2014-Jul-22 21:31N 40°57' E 028°57'  
Track history (hours):
 
Tides and Currents Weather Stations Pressure Air Temp Water Temp Dewpoint Dewpoint Depression Visibility Wind Speed Wind Dir Waves Ship Positions

Kyme

Last reported at 2014-Jul-25 21:32 UTC. Time now 2014-Jul-30 05:02 UTC.
Position N 40°58' E 028°60'.

Length 114 m; draft 3.6 m.

Type: Cargo ship. MMSI: 514283000.

Date/timePositionNaut miles runAvg speedWind from/ knotsBaromVisibWave heightAir tempDewpointWater temp
2014-Jul-25 21:32N 40°58' E 028°60'7 7.4
2014-Jul-25 20:32N 40°51' E 029°05'6 5.7
2014-Jul-25 19:33N 40°53' E 029°12'0 0.1
2014-Jul-25 18:30N 40°53' E 029°12'0 0.0
2014-Jul-25 17:30N 40°53' E 029°12'0 0.0
2014-Jul-25 16:24N 40°53' E 029°12'0 0.0
2014-Jul-25 15:30N 40°52' E 029°12'0 0.0
2014-Jul-25 14:30N 40°53' E 029°12'0 0.0
2014-Jul-25 13:30N 40°53' E 029°12'0 0.0
2014-Jul-25 12:30N 40°53' E 029°12'0 0.0
2014-Jul-25 11:30N 40°53' E 029°12'0 0.0
2014-Jul-25 10:30N 40°53' E 029°12'0 0.0
2014-Jul-25 09:30N 40°53' E 029°12'0 0.0
2014-Jul-25 08:30N 40°53' E 029°12'0 0.0
2014-Jul-25 07:24N 40°53' E 029°12'0 0.0
2014-Jul-25 06:24N 40°53' E 029°12'0 0.0
2014-Jul-25 05:30N 40°53' E 029°12'0 0.0
2014-Jul-25 04:30N 40°53' E 029°12'0 0.0
2014-Jul-25 03:24N 40°53' E 029°12'0 0.0
2014-Jul-25 02:30N 40°53' E 029°12'0 0.0
2014-Jul-25 01:29N 40°53' E 029°12'0 0.0
2014-Jul-25 00:29N 40°53' E 029°12'0 0.1
2014-Jul-24 23:11N 40°53' E 029°12'0 0.1
2014-Jul-24 22:23N 40°53' E 029°12'0 0.1
2014-Jul-24 21:23N 40°53' E 029°12'2 2.5
2014-Jul-24 20:33N 40°51' E 029°10'7 7.2
2014-Jul-24 19:33N 40°46' E 029°04'7 7.4
2014-Jul-24 18:33N 40°41' E 028°56'8 7.3
2014-Jul-24 17:28N 40°35' E 028°49'15 5.2
2014-Jul-24 14:33N 40°26' E 029°04'2 0.4
2014-Jul-24 09:24N 40°25' E 029°07'0 0.0
2014-Jul-24 07:30N 40°25' E 029°07'1 0.0
2014-Jul-23 05:14N 40°26' E 029°06'3 4.1
2014-Jul-23 04:32N 40°26' E 029°02'12 5.7
2014-Jul-23 02:23N 40°29' E 028°47'4 5.2
2014-Jul-23 01:33N 40°33' E 028°45'6 6.0
2014-Jul-23 00:33N 40°39' E 028°48'6 5.9
2014-Jul-22 23:31N 40°44' E 028°51'6 6.3
2014-Jul-22 22:33N 40°50' E 028°54'7 6.8
2014-Jul-22 21:31N 40°57' E 028°57'  

Dump ship's entire track history